Time;durP1;ratioP1;P1;durP2;ratioP2;P2;SDS_P1;SDS_P2;PMS_P1;PMS_P2;Temp;Humidity;BMP_temperature;BMP_pressure;BME280_temperature;BME280_humidity;BME280_pressure;Samples;Min_cycle;Max_cycle;Signal;HPM_P1;HPM_P2
2022/11/05 00:10:29;;;;;;;7.78;5.07;;;;;;;;;;5094404;28;20054;-83
2022/11/05 00:18:30;;;;;;;6.70;4.40;;;;;;;;;;5093687;28;20051;-82
2022/11/05 00:20:57;;;;;;;8.88;4.20;;;;;;;;;;5076297;28;20048;-82
2022/11/05 00:26:11;;;;;;;7.25;4.43;;;;;;;;;;5093704;28;20421;-82
2022/11/05 00:28:42;;;;;;;9.68;4.65;;;;;;;;;;5075580;28;20121;-81
2022/11/05 00:31:11;;;;;;;4.95;4.10;;;;;;;;;;5075828;28;20081;-82
2022/11/05 00:33:39;;;;;;;8.05;4.50;;;;;;;;;;5075743;28;20050;-82
2022/11/05 00:36:07;;;;;;;8.48;3.78;;;;;;;;;;5093218;28;20062;-82
2022/11/05 00:38:34;;;;;;;9.50;4.22;;;;;;;;;;5075652;28;20045;-82
2022/11/05 00:41:01;;;;;;;4.85;3.63;;;;;;;;;;5075840;28;20089;-82
2022/11/05 00:46:14;;;;;;;4.60;4.15;;;;;;;;;;5093462;28;20043;-82
2022/11/05 00:51:27;;;;;;;6.03;4.32;;;;;;;;;;5093356;28;20055;-82
2022/11/05 00:53:55;;;;;;;6.68;3.70;;;;;;;;;;5075440;28;20044;-81
2022/11/05 00:56:22;;;;;;;11.63;3.80;;;;;;;;;;5075397;28;20052;-82
2022/11/05 00:58:49;;;;;;;7.05;4.20;;;;;;;;;;5079921;28;20055;-82
2022/11/05 01:01:16;;;;;;;10.98;3.95;;;;;;;;;;5079627;28;20509;-81
2022/11/05 01:03:44;;;;;;;7.93;4.22;;;;;;;;;;5097737;28;20069;-82
2022/11/05 01:06:17;;;;;;;;;;;;;;;;;;5082075;28;20067;-84
2022/11/05 01:08:45;;;;;;;11.63;5.43;;;;;;;;;;5079129;28;20007;-83
2022/11/05 01:11:31;;;;;;;14.48;5.20;;;;;;;;;;5079335;28;20048;-84
2022/11/05 01:14:02;;;;;;;10.45;4.70;;;;;;;;;;5097169;28;20040;-83
2022/11/05 01:16:30;;;;;;;9.73;4.78;;;;;;;;;;5096694;28;20048;-83
2022/11/05 01:18:57;;;;;;;8.07;4.20;;;;;;;;;;5078833;28;20048;-83
2022/11/05 01:21:24;;;;;;;6.85;4.70;;;;;;;;;;5078665;28;20047;-83
2022/11/05 01:23:52;;;;;;;8.55;4.15;;;;;;;;;;5079115;28;20437;-82
2022/11/05 01:26:19;;;;;;;10.55;5.15;;;;;;;;;;5096850;28;20052;-82
2022/11/05 01:28:50;;;;;;;7.35;5.25;;;;;;;;;;5088500;28;20101;-82
2022/11/05 01:31:18;;;;;;;7.55;4.85;;;;;;;;;;5096386;28;20170;-82
2022/11/05 01:33:45;;;;;;;7.07;4.45;;;;;;;;;;5096632;28;20050;-82
2022/11/05 01:36:12;;;;;;;7.25;5.07;;;;;;;;;;5078032;28;20040;-82
2022/11/05 01:38:39;;;;;;;10.20;4.82;;;;;;;;;;5078948;28;20050;-83
2022/11/05 01:41:07;;;;;;;5.28;4.40;;;;;;;;;;5078439;28;20044;-83
2022/11/05 01:43:46;;;;;;;8.93;5.53;;;;;;;;;;5096143;28;20314;-82
2022/11/05 01:46:14;;;;;;;7.03;4.53;;;;;;;;;;5095938;28;20436;-83
2022/11/05 01:48:41;;;;;;;6.18;4.50;;;;;;;;;;5078389;28;20130;-83
2022/11/05 01:51:11;;;;;;;8.57;5.50;;;;;;;;;;5096596;28;20063;-83
2022/11/05 01:53:40;;;;;;;8.15;5.05;;;;;;;;;;5078347;28;20048;-83
2022/11/05 01:56:20;;;;;;;6.13;4.75;;;;;;;;;;5096003;28;20043;-81
2022/11/05 01:58:53;;;;;;;6.85;5.82;;;;;;;;;;5078252;28;20048;-83
2022/11/05 02:01:20;;;;;;;7.18;5.45;;;;;;;;;;5096107;28;20044;-82
2022/11/05 02:03:48;;;;;;;8.65;5.45;;;;;;;;;;5078620;28;20126;-82
2022/11/05 02:06:16;;;;;;;8.48;5.55;;;;;;;;;;5078235;28;20048;-82
2022/11/05 02:09:03;;;;;;;9.90;6.18;;;;;;;;;;5077335;28;20055;-81
2022/11/05 02:11:31;;;;;;;18.27;6.95;;;;;;;;;;5095564;28;20632;-83
2022/11/05 02:13:58;;;;;;;8.57;5.80;;;;;;;;;;5078056;28;20047;-83
2022/11/05 02:16:28;;;;;;;6.78;6.07;;;;;;;;;;5077731;28;20044;-83
2022/11/05 02:19:00;;;;;;;6.47;5.25;;;;;;;;;;5077844;28;20044;-82
2022/11/05 02:21:37;;;;;;;6.15;5.00;;;;;;;;;;5095800;28;20516;-83
2022/11/05 02:24:10;;;;;;;10.98;5.47;;;;;;;;;;5077659;28;20508;-83
2022/11/05 02:26:56;;;;;;;10.77;5.60;;;;;;;;;;5077734;28;20048;-83
2022/11/05 02:29:42;;;;;;;9.25;5.20;;;;;;;;;;5078257;28;20048;-82
2022/11/05 02:32:28;;;;;;;9.75;4.88;;;;;;;;;;5077393;28;20052;-83
2022/11/05 02:35:11;;;;;;;7.93;5.00;;;;;;;;;;5077394;28;20054;-83
2022/11/05 02:37:39;;;;;;;7.85;4.90;;;;;;;;;;5096081;28;20044;-82
2022/11/05 02:40:15;;;;;;;9.25;5.47;;;;;;;;;;5095603;28;20399;-82
2022/11/05 02:42:54;;;;;;;5.50;5.00;;;;;;;;;;5077452;28;20047;-83
2022/11/05 02:45:28;;;;;;;5.95;4.55;;;;;;;;;;5077197;28;20071;-83
2022/11/05 02:48:07;;;;;;;11.38;5.57;;;;;;;;;;5077366;28;20063;-83
2022/11/05 02:50:38;;;;;;;8.13;5.13;;;;;;;;;;5095209;28;20052;-83
2022/11/05 02:53:08;;;;;;;11.95;5.28;;;;;;;;;;5095157;28;20513;-82
2022/11/05 02:55:36;;;;;;;6.45;5.47;;;;;;;;;;5095227;28;20044;-83
2022/11/05 02:58:04;;;;;;;8.35;4.90;;;;;;;;;;5077347;28;20066;-83
2022/11/05 03:00:34;;;;;;;5.80;5.15;;;;;;;;;;5077397;28;20059;-83
2022/11/05 03:03:02;;;;;;;12.88;6.28;;;;;;;;;;5076895;28;20044;-82
2022/11/05 03:05:33;;;;;;;5.70;5.05;;;;;;;;;;5076972;28;20052;-83
2022/11/05 03:08:04;;;;;;;5.55;4.65;;;;;;;;;;5077080;28;20059;-83
2022/11/05 03:10:39;;;;;;;11.63;6.25;;;;;;;;;;5077153;28;20063;-83
2022/11/05 03:13:13;;;;;;;7.80;5.32;;;;;;;;;;5094430;28;20048;-83
2022/11/05 03:15:47;;;;;;;6.60;5.38;;;;;;;;;;5076657;28;20127;-82
2022/11/05 03:18:19;;;;;;;6.25;4.60;;;;;;;;;;5076597;28;20047;-82
2022/11/05 03:20:52;;;;;;;10.68;5.60;;;;;;;;;;5075920;28;20067;-83
2022/11/05 03:23:19;;;;;;;9.05;5.38;;;;;;;;;;5076795;28;20048;-83
2022/11/05 03:25:48;;;;;;;7.65;5.07;;;;;;;;;;5076249;28;20468;-82
2022/11/05 03:28:17;;;;;;;8.07;5.07;;;;;;;;;;5076346;28;20048;-83
2022/11/05 03:30:45;;;;;;;11.73;5.93;;;;;;;;;;5076422;28;20131;-83
2022/11/05 03:33:17;;;;;;;11.07;6.38;;;;;;;;;;5094308;28;20130;-82
2022/11/05 03:35:46;;;;;;;11.07;6.18;;;;;;;;;;5106976;22;20063;-82
2022/11/05 03:38:16;;;;;;;13.00;6.43;;;;;;;;;;5038343;28;20048;-82
2022/11/05 03:40:45;;;;;;;18.30;8.10;;;;;;;;;;5056211;28;20045;-82
2022/11/05 03:43:13;;;;;;;11.45;6.80;;;;;;;;;;5056038;28;20052;-81
2022/11/05 03:45:43;;;;;;;13.50;6.10;;;;;;;;;;5055766;28;20053;-81
2022/11/05 03:48:12;;;;;;;11.00;5.43;;;;;;;;;;5055001;28;20056;-82
2022/11/05 03:50:58;;;;;;;10.52;5.65;;;;;;;;;;5054535;28;20124;-82
2022/11/05 03:53:28;;;;;;;9.82;5.35;;;;;;;;;;5055155;28;20108;-82
2022/11/05 03:56:03;;;;;;;9.80;5.07;;;;;;;;;;5055101;28;20045;-82
2022/11/05 03:58:31;;;;;;;6.38;5.07;;;;;;;;;;5055041;28;20045;-82
2022/11/05 04:01:02;;;;;;;7.60;5.22;;;;;;;;;;5057418;28;20147;-82
2022/11/05 04:03:35;;;;;;;6.75;5.28;;;;;;;;;;5054892;28;20476;-82
2022/11/05 04:14:21;;;;;;;7.20;5.40;;;;;;;;;;5056806;28;20103;-81
2022/11/05 04:17:08;;;;;;;9.75;5.60;;;;;;;;;;5055242;28;20072;-81
2022/11/05 04:25:16;;;;;;;5.85;5.03;;;;;;;;;;5054911;28;20525;-82
2022/11/05 04:27:44;;;;;;;10.05;5.85;;;;;;;;;;5055010;28;20398;-81
2022/11/05 04:30:18;;;;;;;9.25;5.65;;;;;;;;;;5055906;28;20051;-82
2022/11/05 04:32:55;;;;;;;10.10;5.82;;;;;;;;;;5052873;28;20132;-82
2022/11/05 04:35:22;;;;;;;7.82;6.03;;;;;;;;;;5062082;28;20096;-82
2022/11/05 04:37:50;;;;;;;13.65;5.70;;;;;;;;;;5073205;28;20099;-82
2022/11/05 04:40:17;;;;;;;8.98;4.93;;;;;;;;;;5057251;28;20072;-82
2022/11/05 04:42:44;;;;;;;11.10;5.68;;;;;;;;;;5057756;28;20143;-82
2022/11/05 04:45:12;;;;;;;11.15;6.25;;;;;;;;;;5057370;28;20477;-82
2022/11/05 04:47:40;;;;;;;9.98;5.63;;;;;;;;;;5059440;28;20548;-82
2022/11/05 04:50:09;;;;;;;9.20;5.15;;;;;;;;;;5059023;28;20187;-82
2022/11/05 04:52:36;;;;;;;6.22;5.10;;;;;;;;;;5059080;28;20053;-82
2022/11/05 04:55:04;;;;;;;9.23;5.95;;;;;;;;;;5059195;28;20136;-82
2022/11/05 04:57:32;;;;;;;10.95;5.10;;;;;;;;;;5060404;28;20053;-82
2022/11/05 04:59:59;;;;;;;13.70;5.72;;;;;;;;;;5057824;28;20049;-82
2022/11/05 05:02:27;;;;;;;7.40;4.80;;;;;;;;;;5056399;28;20061;-83
2022/11/05 05:04:54;;;;;;;7.47;4.78;;;;;;;;;;5056846;28;20049;-82
2022/11/05 05:07:23;;;;;;;6.95;4.90;;;;;;;;;;5056352;28;20516;-83
2022/11/05 05:09:50;;;;;;;8.00;6.00;;;;;;;;;;5056814;28;20385;-82
2022/11/05 05:12:18;;;;;;;16.55;10.23;;;;;;;;;;5056891;28;20080;-82
2022/11/05 05:14:48;;;;;;;12.85;8.25;;;;;;;;;;5072736;28;20112;-83
2022/11/05 05:17:15;;;;;;;12.10;8.32;;;;;;;;;;5056410;28;20045;-82
2022/11/05 05:22:28;;;;;;;19.63;13.48;;;;;;;;;;5056674;28;20105;-82
2022/11/05 05:24:56;;;;;;;27.42;18.75;;;;;;;;;;5071311;28;20080;-82
2022/11/05 05:27:24;;;;;;;32.30;19.85;;;;;;;;;;5071590;28;20139;-82
2022/11/05 05:29:52;;;;;;;23.17;15.63;;;;;;;;;;5071399;28;20075;-82
2022/11/05 05:32:19;;;;;;;13.20;8.60;;;;;;;;;;5056294;28;20136;-82
2022/11/05 05:34:46;;;;;;;12.15;6.20;;;;;;;;;;5055596;28;20056;-82
2022/11/05 05:37:14;;;;;;;8.38;5.35;;;;;;;;;;5056450;28;20136;-82
2022/11/05 05:39:43;;;;;;;7.32;5.32;;;;;;;;;;5057747;28;20140;-82
2022/11/05 05:42:11;;;;;;;8.48;5.85;;;;;;;;;;5058413;28;20053;-83
2022/11/05 05:44:38;;;;;;;7.30;5.07;;;;;;;;;;5060935;28;20053;-82
2022/11/05 05:47:06;;;;;;;7.78;4.88;;;;;;;;;;5061061;28;20103;-82
2022/11/05 05:49:33;;;;;;;8.45;5.47;;;;;;;;;;5061093;28;20045;-82
2022/11/05 05:52:01;;;;;;;7.07;5.57;;;;;;;;;;5063106;28;20099;-82
2022/11/05 05:54:29;;;;;;;7.05;5.63;;;;;;;;;;5062170;28;20049;-82
2022/11/05 05:57:00;;;;;;;12.13;7.60;;;;;;;;;;5062560;28;20095;-82
2022/11/05 05:59:27;;;;;;;7.93;6.63;;;;;;;;;;5061526;28;20080;-82
2022/11/05 06:01:55;;;;;;;15.98;8.05;;;;;;;;;;5062218;28;20068;-82
2022/11/05 06:04:22;;;;;;;26.80;21.60;;;;;;;;;;5061627;28;20490;-82
2022/11/05 06:06:49;;;;;;;32.83;24.58;;;;;;;;;;5078025;28;20041;-82
2022/11/05 06:09:17;;;;;;;14.05;10.95;;;;;;;;;;5077574;28;20045;-82
2022/11/05 06:11:44;;;;;;;10.63;7.72;;;;;;;;;;5078002;28;20106;-82
2022/11/05 06:14:12;;;;;;;14.15;10.35;;;;;;;;;;5062157;28;20088;-83
2022/11/05 06:16:40;;;;;;;11.50;10.05;;;;;;;;;;5079483;28;20041;-82
2022/11/05 06:19:07;;;;;;;13.43;8.90;;;;;;;;;;5078117;28;20080;-82
2022/11/05 06:21:35;;;;;;;11.60;8.18;;;;;;;;;;5062526;28;20041;-82
2022/11/05 06:24:02;;;;;;;9.55;8.27;;;;;;;;;;5062615;28;20068;-82
2022/11/05 06:26:30;;;;;;;11.27;7.88;;;;;;;;;;5061094;28;20053;-83
2022/11/05 06:28:57;;;;;;;13.30;8.68;;;;;;;;;;5056677;28;20060;-82
2022/11/05 06:31:25;;;;;;;18.75;12.10;;;;;;;;;;5062042;28;20057;-82
2022/11/05 06:33:52;;;;;;;16.45;12.27;;;;;;;;;;5092705;28;20053;-83
2022/11/05 06:36:20;;;;;;;16.00;10.13;;;;;;;;;;5087256;28;20049;-83
2022/11/05 06:38:47;;;;;;;19.50;14.30;;;;;;;;;;5078952;28;20128;-82
2022/11/05 06:41:15;;;;;;;17.83;11.70;;;;;;;;;;5062328;28;20112;-82
2022/11/05 06:43:42;;;;;;;10.15;7.32;;;;;;;;;;5061777;28;20556;-82
2022/11/05 06:46:11;;;;;;;7.88;6.70;;;;;;;;;;5063391;28;20060;-82
2022/11/05 06:48:38;;;;;;;10.40;6.40;;;;;;;;;;5060950;28;20056;-82
2022/11/05 06:51:07;;;;;;;11.77;6.85;;;;;;;;;;5064979;28;20053;-82
2022/11/05 06:53:35;;;;;;;10.40;7.32;;;;;;;;;;5063079;28;20049;-83
2022/11/05 06:56:05;;;;;;;9.10;6.50;;;;;;;;;;5061457;28;20072;-83
2022/11/05 06:58:33;;;;;;;10.52;6.20;;;;;;;;;;5060786;28;20049;-82
2022/11/05 07:01:10;;;;;;;8.90;6.35;;;;;;;;;;5062234;28;20076;-82
2022/11/05 07:03:38;;;;;;;10.23;6.30;;;;;;;;;;5061557;28;20049;-82
2022/11/05 07:06:06;;;;;;;8.10;5.57;;;;;;;;;;5062739;28;20099;-83
2022/11/05 07:08:34;;;;;;;7.53;6.18;;;;;;;;;;5062200;28;20049;-83
2022/11/05 07:11:02;;;;;;;11.30;6.95;;;;;;;;;;5062125;28;20103;-83
2022/11/05 07:13:29;;;;;;;8.52;6.40;;;;;;;;;;5062371;28;20461;-82
2022/11/05 07:16:02;;;;;;;13.38;7.05;;;;;;;;;;5062110;28;20045;-82
2022/11/05 07:18:30;;;;;;;7.28;6.45;;;;;;;;;;5061046;28;20132;-82
2022/11/05 07:20:59;;;;;;;12.35;6.90;;;;;;;;;;5060473;28;20453;-82
2022/11/05 07:23:26;;;;;;;8.80;6.55;;;;;;;;;;5060041;28;20103;-82
2022/11/05 07:25:54;;;;;;;9.45;7.68;;;;;;;;;;5060293;28;20056;-82
2022/11/05 07:28:21;;;;;;;12.43;7.55;;;;;;;;;;5060453;28;20051;-82
2022/11/05 07:30:48;;;;;;;16.33;10.48;;;;;;;;;;5061247;28;20053;-83
2022/11/05 07:33:16;;;;;;;49.17;35.67;;;;;;;;;;5061640;28;20049;-83
2022/11/05 07:35:43;;;;;;;34.20;23.52;;;;;;;;;;5079355;28;20044;-83
2022/11/05 07:38:11;;;;;;;23.98;11.10;;;;;;;;;;5078988;28;20076;-84
2022/11/05 07:40:38;;;;;;;12.50;8.38;;;;;;;;;;5063939;28;20053;-83
2022/11/05 07:43:05;;;;;;;197.15;110.65;;;;;;;;;;5061940;28;20140;-83
2022/11/05 07:45:33;;;;;;;98.80;56.13;;;;;;;;;;5077931;28;20049;-83
2022/11/05 07:48:01;;;;;;;44.60;26.30;;;;;;;;;;5062710;28;20123;-83
2022/11/05 07:50:31;;;;;;;12.80;7.38;;;;;;;;;;5061349;28;20065;-83
2022/11/05 07:53:02;;;;;;;9.20;6.68;;;;;;;;;;5061257;28;20486;-83
2022/11/05 07:55:30;;;;;;;9.40;5.78;;;;;;;;;;5061021;28;20538;-83
2022/11/05 07:57:57;;;;;;;8.18;6.00;;;;;;;;;;5061351;28;20080;-82
2022/11/05 08:00:25;;;;;;;9.18;6.00;;;;;;;;;;5062151;28;20048;-83
2022/11/05 08:03:04;;;;;;;10.50;6.10;;;;;;;;;;5061902;28;20052;-83
2022/11/05 08:05:36;;;;;;;6.35;5.75;;;;;;;;;;5061380;28;20053;-83
2022/11/05 08:08:04;;;;;;;6.78;5.40;;;;;;;;;;5061013;28;20053;-83
2022/11/05 08:10:32;;;;;;;9.07;5.88;;;;;;;;;;5061270;28;20465;-83
2022/11/05 08:13:00;;;;;;;12.18;9.18;;;;;;;;;;5060709;28;20065;-83
2022/11/05 08:15:28;;;;;;;20.08;14.85;;;;;;;;;;5060445;28;20044;-83
2022/11/05 08:18:02;;;;;;;8.15;5.85;;;;;;;;;;5062162;28;20049;-83
2022/11/05 08:20:30;;;;;;;7.45;5.55;;;;;;;;;;5060957;28;20049;-83
2022/11/05 08:22:58;;;;;;;16.25;10.15;;;;;;;;;;5057472;28;20099;-83
2022/11/05 08:25:25;;;;;;;6.80;5.30;;;;;;;;;;5075772;28;20049;-83
2022/11/05 08:27:56;;;;;;;34.10;23.30;;;;;;;;;;5059863;28;20144;-83
2022/11/05 08:30:25;;;;;;;24.20;16.58;;;;;;;;;;5072267;28;20029;-83
2022/11/05 08:32:56;;;;;;;8.48;7.13;;;;;;;;;;5088343;28;20060;-83
2022/11/05 08:35:23;;;;;;;21.92;13.75;;;;;;;;;;5060293;28;20045;-83
2022/11/05 08:37:50;;;;;;;8.48;5.95;;;;;;;;;;5075613;28;20116;-83
2022/11/05 08:40:18;;;;;;;5.75;4.80;;;;;;;;;;5058995;28;20045;-83
2022/11/05 08:42:45;;;;;;;5.63;4.07;;;;;;;;;;5059447;28;20076;-83
2022/11/05 08:45:12;;;;;;;6.18;3.95;;;;;;;;;;5058898;28;20103;-83
2022/11/05 08:47:40;;;;;;;6.63;4.15;;;;;;;;;;5060056;28;20045;-83
2022/11/05 08:50:08;;;;;;;4.38;3.78;;;;;;;;;;5059084;28;20061;-83
2022/11/05 08:52:39;;;;;;;7.43;4.30;;;;;;;;;;5059601;28;20079;-83
2022/11/05 08:55:07;;;;;;;5.40;4.13;;;;;;;;;;5059174;28;20049;-83
2022/11/05 08:57:34;;;;;;;7.85;5.13;;;;;;;;;;5060101;28;20072;-84
2022/11/05 09:00:01;;;;;;;8.35;5.05;;;;;;;;;;5060354;28;20128;-83
2022/11/05 09:02:29;;;;;;;11.20;9.10;;;;;;;;;;5059612;28;20124;-83
2022/11/05 09:04:56;;;;;;;7.68;5.30;;;;;;;;;;5059885;28;20055;-83
2022/11/05 09:07:23;;;;;;;7.15;5.47;;;;;;;;;;5060062;28;20505;-83
2022/11/05 09:09:51;;;;;;;8.18;5.10;;;;;;;;;;5058834;28;20131;-83
2022/11/05 09:12:19;;;;;;;7.15;4.13;;;;;;;;;;5054791;28;20045;-83
2022/11/05 09:14:49;;;;;;;6.28;4.00;;;;;;;;;;5056934;28;20049;-83
2022/11/05 09:17:17;;;;;;;5.72;4.45;;;;;;;;;;5051080;28;20045;-83
2022/11/05 09:19:48;;;;;;;9.25;6.85;;;;;;;;;;5044833;28;20045;-83
2022/11/05 09:22:16;;;;;;;8.60;5.90;;;;;;;;;;5044937;28;20045;-83
2022/11/05 09:24:43;;;;;;;12.02;7.10;;;;;;;;;;5044118;28;20072;-83
2022/11/05 09:27:15;;;;;;;11.27;6.80;;;;;;;;;;5045341;28;20131;-82
2022/11/05 09:29:42;;;;;;;10.07;6.20;;;;;;;;;;5044236;28;20122;-83
2022/11/05 09:32:10;;;;;;;9.82;5.68;;;;;;;;;;5044386;28;20053;-82
2022/11/05 09:34:38;;;;;;;10.10;5.63;;;;;;;;;;5044236;28;20509;-82
2022/11/05 09:37:05;;;;;;;10.55;5.47;;;;;;;;;;5089690;22;20058;-83
2022/11/05 09:39:32;;;;;;;9.00;5.25;;;;;;;;;;5064633;28;20131;-84
2022/11/05 09:42:03;;;;;;;7.90;5.10;;;;;;;;;;5059548;28;20076;-85
2022/11/05 09:44:40;;;;;;;10.45;4.88;;;;;;;;;;5060331;28;20048;-86
2022/11/05 09:47:12;;;;;;;6.72;4.53;;;;;;;;;;5061719;28;20519;-85
2022/11/05 09:49:41;;;;;;;8.15;4.68;;;;;;;;;;5061395;28;20055;-86
2022/11/05 09:52:13;;;;;;;8.00;4.72;;;;;;;;;;5079485;28;20102;-86
2022/11/05 09:54:41;;;;;;;8.98;4.63;;;;;;;;;;5062234;28;20052;-85
2022/11/05 09:57:12;;;;;;;7.70;4.63;;;;;;;;;;5066563;28;20079;-85
2022/11/05 09:59:42;;;;;;;12.25;4.60;;;;;;;;;;5076093;28;20040;-84
2022/11/05 10:02:15;;;;;;;11.80;5.45;;;;;;;;;;5059784;28;20083;-84
2022/11/05 10:04:44;;;;;;;13.55;5.50;;;;;;;;;;5061154;28;20503;-86
2022/11/05 10:07:14;;;;;;;12.38;4.90;;;;;;;;;;5061987;28;20408;-86
2022/11/05 10:09:45;;;;;;;11.35;4.97;;;;;;;;;;5061855;28;20052;-85
2022/11/05 10:12:16;;;;;;;12.63;4.60;;;;;;;;;;5060900;28;20136;-86
2022/11/05 10:14:46;;;;;;;11.43;4.43;;;;;;;;;;5061295;28;20408;-85
2022/11/05 10:17:19;;;;;;;11.75;3.40;;;;;;;;;;5058547;28;20044;-85
2022/11/05 10:19:47;;;;;;;;;;;;;;;;;;5061753;28;20123;-86
2022/11/05 10:22:15;;;;;;;11.27;3.45;;;;;;;;;;5060014;28;20358;-83
2022/11/05 10:24:45;;;;;;;6.65;2.92;;;;;;;;;;5059814;28;20076;-83
2022/11/05 10:27:14;;;;;;;8.23;3.60;;;;;;;;;;5058602;28;20131;-85
2022/11/05 10:29:43;;;;;;;13.65;3.42;;;;;;;;;;5078161;28;20091;-86
2022/11/05 10:32:12;;;;;;;12.73;3.80;;;;;;;;;;5060161;28;20048;-86
2022/11/05 10:34:40;;;;;;;15.60;4.05;;;;;;;;;;5061511;28;20123;-86
2022/11/05 10:37:11;;;;;;;12.35;3.90;;;;;;;;;;5060961;28;20104;-84
2022/11/05 10:39:38;;;;;;;14.77;3.90;;;;;;;;;;5059150;28;20147;-86
2022/11/05 10:42:24;;;;;;;8.23;3.42;;;;;;;;;;5060064;28;20044;-86
2022/11/05 10:44:51;;;;;;;8.93;3.35;;;;;;;;;;5078068;28;20055;-85
2022/11/05 10:47:21;;;;;;;8.15;3.50;;;;;;;;;;5060634;28;20072;-86
2022/11/05 10:49:52;;;;;;;10.50;3.38;;;;;;;;;;5060630;28;20095;-86
2022/11/05 10:52:24;;;;;;;8.70;3.70;;;;;;;;;;5060865;28;20058;-86
2022/11/05 10:54:53;;;;;;;9.77;3.60;;;;;;;;;;5062129;28;20493;-86
2022/11/05 10:57:28;;;;;;;6.45;3.30;;;;;;;;;;5062854;28;20416;-86
2022/11/05 11:00:15;;;;;;;7.18;3.80;;;;;;;;;;5062155;28;20071;-86
2022/11/05 11:02:57;;;;;;;9.88;3.65;;;;;;;;;;5063174;28;20045;-87
2022/11/05 11:05:30;;;;;;;10.45;2.95;;;;;;;;;;5060255;28;20048;-85
2022/11/05 11:08:20;;;;;;;12.20;2.90;;;;;;;;;;5061122;28;20127;-87
2022/11/05 11:10:49;;;;;;;5.00;2.67;;;;;;;;;;5060721;28;20131;-85
2022/11/05 11:13:24;;;;;;;7.32;2.75;;;;;;;;;;5059910;28;20055;-84
2022/11/05 11:15:52;;;;;;;7.20;2.63;;;;;;;;;;5060468;28;20135;-86
2022/11/05 11:18:28;;;;;;;6.55;2.65;;;;;;;;;;5076662;28;20564;-86
2022/11/05 11:21:18;;;;;;;9.70;3.00;;;;;;;;;;5059741;28;20044;-85
2022/11/05 11:23:54;;;;;;;6.60;2.45;;;;;;;;;;5058492;28;20045;-85
2022/11/05 11:26:23;;;;;;;11.27;2.58;;;;;;;;;;5058718;28;20080;-86
2022/11/05 11:28:54;;;;;;;10.88;3.42;;;;;;;;;;5061404;28;20082;-86
2022/11/05 11:31:23;;;;;;;9.93;3.30;;;;;;;;;;5060318;28;20104;-86
2022/11/05 11:33:52;;;;;;;11.20;3.40;;;;;;;;;;5060391;28;20056;-86
2022/11/05 11:36:24;;;;;;;8.80;2.58;;;;;;;;;;5061634;28;20040;-86
2022/11/05 11:38:57;;;;;;;10.18;3.42;;;;;;;;;;5062611;28;20401;-86
2022/11/05 11:41:27;;;;;;;7.15;2.60;;;;;;;;;;5061692;28;20378;-86
2022/11/05 11:44:02;;;;;;;12.05;3.50;;;;;;;;;;5061625;28;20112;-85
2022/11/05 11:46:31;;;;;;;4.32;2.28;;;;;;;;;;5079157;28;20059;-86
2022/11/05 11:48:59;;;;;;;9.05;2.50;;;;;;;;;;5060076;28;20072;-86
2022/11/05 11:51:34;;;;;;;7.40;2.25;;;;;;;;;;5061252;28;20048;-86
2022/11/05 11:54:01;;;;;;;6.50;1.65;;;;;;;;;;5061848;28;20072;-86
2022/11/05 11:56:31;;;;;;;5.72;1.63;;;;;;;;;;5060911;28;20048;-86
2022/11/05 11:59:02;;;;;;;2.58;1.27;;;;;;;;;;5060051;28;20049;-86
2022/11/05 12:01:29;;;;;;;2.97;0.95;;;;;;;;;;5061081;28;20401;-86
2022/11/05 12:04:08;;;;;;;6.72;1.50;;;;;;;;;;5062679;28;20481;-86
2022/11/05 12:06:39;;;;;;;6.30;1.48;;;;;;;;;;5059729;28;20059;-86
2022/11/05 12:09:22;;;;;;;4.45;1.20;;;;;;;;;;5060685;28;20052;-86
2022/11/05 12:11:52;;;;;;;4.85;1.20;;;;;;;;;;5079162;28;20052;-86
2022/11/05 12:14:25;;;;;;;5.97;0.95;;;;;;;;;;5063699;28;20112;-86
2022/11/05 12:17:02;;;;;;;5.63;1.30;;;;;;;;;;5061596;28;20055;-86
2022/11/05 12:19:44;;;;;;;6.30;1.13;;;;;;;;;;5062457;28;20080;-86
2022/11/05 12:22:30;;;;;;;4.72;1.45;;;;;;;;;;5062983;28;20052;-86
2022/11/05 12:25:04;;;;;;;7.80;1.50;;;;;;;;;;5062657;28;20071;-86
2022/11/05 12:27:31;;;;;;;6.20;1.30;;;;;;;;;;5067591;28;20135;-85
2022/11/05 12:30:04;;;;;;;6.57;1.73;;;;;;;;;;5062581;28;20056;-85
2022/11/05 12:32:54;;;;;;;7.47;1.40;;;;;;;;;;5057183;28;20048;-87
2022/11/05 12:35:28;;;;;;;4.25;1.67;;;;;;;;;;5057881;28;20127;-87
2022/11/05 12:37:58;;;;;;;6.97;1.85;;;;;;;;;;5056848;28;20051;-86
2022/11/05 12:40:28;;;;;;;5.38;1.70;;;;;;;;;;5058085;28;20051;-86
2022/11/05 12:43:14;;;;;;;5.35;1.50;;;;;;;;;;5061028;28;20079;-86
2022/11/05 12:45:44;;;;;;;5.82;1.33;;;;;;;;;;5057138;28;20540;-88
2022/11/05 12:48:12;;;;;;;4.20;1.45;;;;;;;;;;5056977;28;20120;-86
2022/11/05 12:50:39;;;;;;;6.35;1.83;;;;;;;;;;5057981;28;20071;-87
2022/11/05 12:53:12;;;;;;;3.55;1.30;;;;;;;;;;5058509;28;20048;-86
2022/11/05 12:55:42;;;;;;;3.17;1.40;;;;;;;;;;5059430;28;20048;-85
2022/11/05 12:58:19;;;;;;;5.43;1.33;;;;;;;;;;5059349;28;20052;-85
2022/11/05 13:00:49;;;;;;;8.25;1.70;;;;;;;;;;5059067;28;20131;-86
2022/11/05 13:03:22;;;;;;;3.42;1.50;;;;;;;;;;5057680;28;20098;-86
2022/11/05 13:06:02;;;;;;;8.35;1.63;;;;;;;;;;5056724;28;20132;-87
2022/11/05 13:08:41;;;;;;;5.60;1.30;;;;;;;;;;5076654;28;20060;-85
2022/11/05 13:11:34;;;;;;;85.28;54.10;;;;;;;;;;5074886;28;20055;-86
2022/11/05 13:14:13;;;;;;;104.93;64.75;;;;;;;;;;5057992;28;20055;-86
2022/11/05 13:16:49;;;;;;;43.03;28.95;;;;;;;;;;5059438;28;20499;-86
2022/11/05 13:19:22;;;;;;;71.65;59.97;;;;;;;;;;5057623;28;20045;-86
2022/11/05 13:21:56;;;;;;;57.85;41.35;;;;;;;;;;5059978;28;20054;-86
2022/11/05 13:24:25;;;;;;;62.50;40.63;;;;;;;;;;5058798;28;20049;-86
2022/11/05 13:27:22;;;;;;;156.80;94.97;;;;;;;;;;5057027;28;20112;-86
2022/11/05 13:29:52;;;;;;;9.25;5.82;;;;;;;;;;4987341;28;20051;-86
2022/11/05 13:32:34;;;;;;;321.10;179.43;;;;;;;;;;5059294;28;20048;-86
2022/11/05 13:35:02;;;;;;;26.80;18.27;;;;;;;;;;5059126;28;20048;-86
2022/11/05 13:40:49;;;;;;;9.82;2.78;;;;;;;;;;5076900;28;20049;-85
2022/11/05 13:43:26;;;;;;;4.90;2.15;;;;;;;;;;5059840;28;20062;-86
2022/11/05 13:45:53;;;;;;;5.15;2.30;;;;;;;;;;5056982;28;20465;-87
2022/11/05 13:48:38;;;;;;;7.40;2.80;;;;;;;;;;5057189;28;20139;-87
2022/11/05 13:51:29;;;;;;;10.00;2.67;;;;;;;;;;5074772;28;20139;-85
2022/11/05 13:54:04;;;;;;;3.60;2.13;;;;;;;;;;5058812;28;20052;-86
2022/11/05 13:56:49;;;;;;;16.38;7.30;;;;;;;;;;5059107;28;20503;-86
2022/11/05 13:59:35;;;;;;;6.97;4.63;;;;;;;;;;5076574;28;20087;-86
2022/11/05 14:02:05;;;;;;;7.25;3.22;;;;;;;;;;5059475;28;20072;-86
2022/11/05 14:04:40;;;;;;;6.30;2.67;;;;;;;;;;5060394;28;20044;-86
2022/11/05 14:07:09;;;;;;;5.80;2.88;;;;;;;;;;5063345;28;20080;-86
2022/11/05 14:09:37;;;;;;;5.15;2.53;;;;;;;;;;5061816;28;20507;-87
2022/11/05 14:12:07;;;;;;;3.88;2.25;;;;;;;;;;5062082;28;20155;-86
2022/11/05 14:14:43;;;;;;;3.90;2.47;;;;;;;;;;5062307;28;20052;-86
2022/11/05 14:17:10;;;;;;;8.38;2.75;;;;;;;;;;5064369;28;20055;-86
2022/11/05 14:19:58;;;;;;;5.65;2.30;;;;;;;;;;5063122;28;20049;-86
2022/11/05 14:22:31;;;;;;;6.47;2.30;;;;;;;;;;5065910;28;20051;-86
2022/11/05 14:25:18;;;;;;;4.95;2.08;;;;;;;;;;5066203;28;20045;-87
2022/11/05 14:27:48;;;;;;;5.15;1.92;;;;;;;;;;5065764;28;20143;-84
2022/11/05 14:30:34;;;;;;;4.43;1.98;;;;;;;;;;5062089;28;20063;-86
2022/11/05 14:33:36;;;;;;;6.90;2.03;;;;;;;;;;5062181;28;20067;-87
2022/11/05 14:36:21;;;;;;;3.72;2.20;;;;;;;;;;4991161;28;20086;-85
2022/11/05 14:38:50;;;;;;;5.05;2.00;;;;;;;;;;5059483;28;20135;-85
2022/11/05 14:41:18;;;;;;;4.55;2.17;;;;;;;;;;5058878;28;20048;-85
2022/11/05 14:44:06;;;;;;;6.07;3.92;;;;;;;;;;5058754;28;20062;-85
2022/11/05 14:46:41;;;;;;;7.18;5.13;;;;;;;;;;5057904;28;20410;-86
2022/11/05 14:49:15;;;;;;;5.90;3.33;;;;;;;;;;5064559;28;20114;-86
2022/11/05 14:51:47;;;;;;;4.55;2.25;;;;;;;;;;5067879;28;20108;-84
2022/11/05 14:54:20;;;;;;;3.30;1.52;;;;;;;;;;5075146;28;20116;-84
2022/11/05 14:56:52;;;;;;;5.13;1.88;;;;;;;;;;5059678;28;20079;-85
2022/11/05 14:59:30;;;;;;;4.78;3.00;;;;;;;;;;5076462;28;20386;-86
2022/11/05 15:01:58;;;;;;;5.72;2.53;;;;;;;;;;5058713;28;20136;-85
2022/11/05 15:04:25;;;;;;;3.25;1.80;;;;;;;;;;5076360;28;20052;-85
2022/11/05 15:07:02;;;;;;;6.00;3.75;;;;;;;;;;5058731;28;20492;-85
2022/11/05 15:09:41;;;;;;;4.25;2.40;;;;;;;;;;5058076;28;20478;-86
2022/11/05 15:12:14;;;;;;;5.60;2.50;;;;;;;;;;5075669;28;20049;-85
2022/11/05 15:14:58;;;;;;;4.75;1.85;;;;;;;;;;5057225;28;20052;-86
2022/11/05 15:17:30;;;;;;;2.63;1.92;;;;;;;;;;5056826;28;20080;-85
2022/11/05 15:20:01;;;;;;;6.05;1.95;;;;;;;;;;5056979;28;20599;-85
2022/11/05 15:22:34;;;;;;;2.20;2.10;;;;;;;;;;5057211;28;20394;-84
2022/11/05 15:25:02;;;;;;;6.75;2.50;;;;;;;;;;5057233;28;20045;-83
2022/11/05 15:27:33;;;;;;;10.80;5.63;;;;;;;;;;5058107;28;20408;-85
2022/11/05 15:30:04;;;;;;;15.88;9.30;;;;;;;;;;5056922;28;20554;-84
2022/11/05 15:32:32;;;;;;;19.50;11.68;;;;;;;;;;5056899;28;20508;-85
2022/11/05 15:35:16;;;;;;;6.35;3.70;;;;;;;;;;5057662;28;20044;-84
2022/11/05 15:37:47;;;;;;;3.90;2.50;;;;;;;;;;5086471;23;20116;-83
2022/11/05 15:40:29;;;;;;;4.97;3.00;;;;;;;;;;5087741;28;20044;-84
2022/11/05 15:43:20;;;;;;;11.30;2.50;;;;;;;;;;5086647;28;20051;-84
2022/11/05 15:45:57;;;;;;;6.47;3.33;;;;;;;;;;5104432;28;20039;-83